首页
METAR-TAF:

METAR-TAF

机场 :

Sparta, 威斯康辛州, 美国

纬度: 43-57-30N, 经度: 090-44-16W, 海拔: 255米

当前天气观测

该预报发布于24分钟前的06:35 UTC
风速9节,风向,有时为14节阵风,在南转南东西南之间变化
温度 2°C
湿度 75%
气压 1019 hPa
能見度: 16.1公里
阴天层高于11000英尺

METAR: KCMY 170635Z AUTO 17009G14KT 150V220 10SM OVC110 02/M02 A3009 RMK AO2 T00211016

时间: 00:59 (06:59 UTC)


TAF: 丢失

超过4000个机场的气象观测和天气预报(METAR&TAF报告)。

可查询的气象台以黄色和红色小点在地图上表示。

将鼠标移到小点上方,可查看气象台名称。

然后点击查看天气观测和预报。

如需切换地图:点击带黑十字的绿色按钮放大地图;点击带横线的绿色按钮缩小地图;或者点击绿色箭头查看邻近地区的地图。


METAR-TAF: